sensor_id;sensor_type;location;lat;lon;timestamp;P1;durP1;ratioP1;P2;durP2;ratioP2
26908;SDS011;14477;51.038;4.588;2022-11-15T00:00:51;6.85;;;3.72;;
26908;SDS011;14477;51.038;4.588;2022-11-15T00:03:18;6.70;;;3.80;;
26908;SDS011;14477;51.038;4.588;2022-11-15T00:05:46;6.70;;;3.97;;
26908;SDS011;14477;51.038;4.588;2022-11-15T00:08:12;7.40;;;3.80;;
26908;SDS011;14477;51.038;4.588;2022-11-15T00:10:37;5.87;;;3.80;;
26908;SDS011;14477;51.038;4.588;2022-11-15T00:13:06;5.27;;;3.43;;
26908;SDS011;14477;51.038;4.588;2022-11-15T00:15:36;7.05;;;3.65;;
26908;SDS011;14477;51.038;4.588;2022-11-15T00:18:06;5.90;;;3.55;;
26908;SDS011;14477;51.038;4.588;2022-11-15T00:20:37;5.97;;;3.23;;
26908;SDS011;14477;51.038;4.588;2022-11-15T00:23:03;8.52;;;3.67;;
26908;SDS011;14477;51.038;4.588;2022-11-15T00:25:29;6.63;;;3.60;;
26908;SDS011;14477;51.038;4.588;2022-11-15T00:27:56;7.15;;;3.95;;
26908;SDS011;14477;51.038;4.588;2022-11-15T00:30:22;6.00;;;3.43;;
26908;SDS011;14477;51.038;4.588;2022-11-15T00:32:48;6.00;;;3.28;;
26908;SDS011;14477;51.038;4.588;2022-11-15T00:35:14;5.45;;;3.35;;
26908;SDS011;14477;51.038;4.588;2022-11-15T00:37:40;6.57;;;3.38;;
26908;SDS011;14477;51.038;4.588;2022-11-15T00:40:06;6.23;;;3.27;;
26908;SDS011;14477;51.038;4.588;2022-11-15T00:42:32;6.28;;;3.25;;
26908;SDS011;14477;51.038;4.588;2022-11-15T00:44:58;6.33;;;3.90;;
26908;SDS011;14477;51.038;4.588;2022-11-15T00:47:24;7.35;;;4.20;;
26908;SDS011;14477;51.038;4.588;2022-11-15T00:49:49;8.77;;;4.30;;
26908;SDS011;14477;51.038;4.588;2022-11-15T00:52:15;8.95;;;4.80;;
26908;SDS011;14477;51.038;4.588;2022-11-15T00:54:41;7.63;;;4.00;;
26908;SDS011;14477;51.038;4.588;2022-11-15T00:57:06;6.27;;;3.77;;
26908;SDS011;14477;51.038;4.588;2022-11-15T00:59:32;7.43;;;3.72;;
26908;SDS011;14477;51.038;4.588;2022-11-15T01:01:57;7.03;;;3.90;;
26908;SDS011;14477;51.038;4.588;2022-11-15T01:04:23;6.05;;;3.60;;
26908;SDS011;14477;51.038;4.588;2022-11-15T01:06:48;6.87;;;3.43;;
26908;SDS011;14477;51.038;4.588;2022-11-15T01:09:14;6.80;;;3.53;;
26908;SDS011;14477;51.038;4.588;2022-11-15T01:11:40;6.87;;;3.47;;
26908;SDS011;14477;51.038;4.588;2022-11-15T01:14:05;5.03;;;3.43;;
26908;SDS011;14477;51.038;4.588;2022-11-15T01:16:31;7.07;;;3.88;;
26908;SDS011;14477;51.038;4.588;2022-11-15T01:18:58;5.90;;;3.70;;
26908;SDS011;14477;51.038;4.588;2022-11-15T01:21:24;5.88;;;3.42;;
26908;SDS011;14477;51.038;4.588;2022-11-15T01:23:53;6.47;;;3.67;;
26908;SDS011;14477;51.038;4.588;2022-11-15T01:26:20;6.22;;;4.00;;
26908;SDS011;14477;51.038;4.588;2022-11-15T01:28:46;6.03;;;3.97;;
26908;SDS011;14477;51.038;4.588;2022-11-15T01:31:13;6.73;;;3.90;;
26908;SDS011;14477;51.038;4.588;2022-11-15T01:33:41;6.30;;;3.65;;
26908;SDS011;14477;51.038;4.588;2022-11-15T01:36:08;6.45;;;3.72;;
26908;SDS011;14477;51.038;4.588;2022-11-15T01:38:37;6.78;;;3.60;;
26908;SDS011;14477;51.038;4.588;2022-11-15T01:41:03;7.33;;;3.93;;
26908;SDS011;14477;51.038;4.588;2022-11-15T01:43:30;8.52;;;4.40;;
26908;SDS011;14477;51.038;4.588;2022-11-15T01:49:00;5.68;;;3.40;;
26908;SDS011;14477;51.038;4.588;2022-11-15T01:51:31;6.55;;;3.50;;
26908;SDS011;14477;51.038;4.588;2022-11-15T01:54:05;5.50;;;3.60;;
26908;SDS011;14477;51.038;4.588;2022-11-15T01:56:40;6.53;;;3.70;;
26908;SDS011;14477;51.038;4.588;2022-11-15T01:59:14;5.40;;;3.57;;
26908;SDS011;14477;51.038;4.588;2022-11-15T02:01:40;6.60;;;3.90;;
26908;SDS011;14477;51.038;4.588;2022-11-15T02:04:16;6.15;;;3.80;;
26908;SDS011;14477;51.038;4.588;2022-11-15T02:06:49;7.63;;;3.75;;
26908;SDS011;14477;51.038;4.588;2022-11-15T02:09:14;5.83;;;3.57;;
26908;SDS011;14477;51.038;4.588;2022-11-15T02:11:41;5.90;;;3.80;;
26908;SDS011;14477;51.038;4.588;2022-11-15T02:14:08;6.78;;;3.85;;
26908;SDS011;14477;51.038;4.588;2022-11-15T02:21:44;6.82;;;3.95;;
26908;SDS011;14477;51.038;4.588;2022-11-15T02:25:06;6.45;;;4.13;;
26908;SDS011;14477;51.038;4.588;2022-11-15T02:32:19;7.00;;;3.80;;
26908;SDS011;14477;51.038;4.588;2022-11-15T02:43:17;5.30;;;3.03;;
26908;SDS011;14477;51.038;4.588;2022-11-15T02:46:14;5.57;;;3.33;;
26908;SDS011;14477;51.038;4.588;2022-11-15T02:49:10;5.25;;;3.05;;
26908;SDS011;14477;51.038;4.588;2022-11-15T02:51:38;4.53;;;2.75;;
26908;SDS011;14477;51.038;4.588;2022-11-15T02:54:04;7.00;;;3.25;;
26908;SDS011;14477;51.038;4.588;2022-11-15T02:56:30;5.73;;;3.10;;
26908;SDS011;14477;51.038;4.588;2022-11-15T02:59:09;4.95;;;3.00;;
26908;SDS011;14477;51.038;4.588;2022-11-15T03:04:37;5.30;;;2.97;;
26908;SDS011;14477;51.038;4.588;2022-11-15T03:07:25;5.03;;;3.07;;
26908;SDS011;14477;51.038;4.588;2022-11-15T03:10:06;5.40;;;2.67;;
26908;SDS011;14477;51.038;4.588;2022-11-15T03:12:44;4.82;;;2.75;;
26908;SDS011;14477;51.038;4.588;2022-11-15T03:15:38;5.93;;;2.80;;
26908;SDS011;14477;51.038;4.588;2022-11-15T03:18:12;4.38;;;2.67;;
26908;SDS011;14477;51.038;4.588;2022-11-15T03:20:46;6.07;;;3.00;;
26908;SDS011;14477;51.038;4.588;2022-11-15T03:23:13;5.55;;;2.67;;
26908;SDS011;14477;51.038;4.588;2022-11-15T03:25:43;5.38;;;2.95;;
26908;SDS011;14477;51.038;4.588;2022-11-15T03:28:14;5.65;;;2.97;;
26908;SDS011;14477;51.038;4.588;2022-11-15T03:30:44;4.40;;;2.90;;
26908;SDS011;14477;51.038;4.588;2022-11-15T03:33:12;4.33;;;2.73;;
26908;SDS011;14477;51.038;4.588;2022-11-15T03:35:40;4.90;;;2.95;;
26908;SDS011;14477;51.038;4.588;2022-11-15T03:38:41;5.50;;;2.83;;
26908;SDS011;14477;51.038;4.588;2022-11-15T03:41:01;5.85;;;2.90;;
26908;SDS011;14477;51.038;4.588;2022-11-15T03:46:32;5.23;;;2.53;;
26908;SDS011;14477;51.038;4.588;2022-11-15T03:49:04;4.78;;;2.40;;
26908;SDS011;14477;51.038;4.588;2022-11-15T03:51:44;4.82;;;2.60;;
26908;SDS011;14477;51.038;4.588;2022-11-15T03:54:11;5.03;;;3.00;;
26908;SDS011;14477;51.038;4.588;2022-11-15T03:56:37;4.90;;;2.80;;
26908;SDS011;14477;51.038;4.588;2022-11-15T03:59:03;4.38;;;2.67;;
26908;SDS011;14477;51.038;4.588;2022-11-15T04:01:29;3.90;;;2.70;;
26908;SDS011;14477;51.038;4.588;2022-11-15T04:03:54;4.65;;;2.85;;
26908;SDS011;14477;51.038;4.588;2022-11-15T04:06:20;5.67;;;2.90;;
26908;SDS011;14477;51.038;4.588;2022-11-15T04:08:46;5.53;;;2.65;;
26908;SDS011;14477;51.038;4.588;2022-11-15T04:11:11;5.00;;;2.77;;
26908;SDS011;14477;51.038;4.588;2022-11-15T04:13:37;4.07;;;2.22;;
26908;SDS011;14477;51.038;4.588;2022-11-15T04:16:03;5.47;;;2.53;;
26908;SDS011;14477;51.038;4.588;2022-11-15T04:18:28;4.63;;;2.22;;
26908;SDS011;14477;51.038;4.588;2022-11-15T04:20:54;4.33;;;2.30;;
26908;SDS011;14477;51.038;4.588;2022-11-15T04:23:38;3.40;;;2.08;;
26908;SDS011;14477;51.038;4.588;2022-11-15T04:26:22;4.35;;;2.15;;
26908;SDS011;14477;51.038;4.588;2022-11-15T04:28:49;5.40;;;2.10;;
26908;SDS011;14477;51.038;4.588;2022-11-15T04:31:33;3.92;;;2.00;;
26908;SDS011;14477;51.038;4.588;2022-11-15T04:33:58;4.32;;;2.38;;
26908;SDS011;14477;51.038;4.588;2022-11-15T04:36:24;3.80;;;2.00;;
26908;SDS011;14477;51.038;4.588;2022-11-15T04:39:09;3.65;;;2.05;;
26908;SDS011;14477;51.038;4.588;2022-11-15T04:41:34;4.00;;;1.90;;
26908;SDS011;14477;51.038;4.588;2022-11-15T04:44:00;3.30;;;2.00;;
26908;SDS011;14477;51.038;4.588;2022-11-15T04:46:26;3.70;;;1.88;;
26908;SDS011;14477;51.038;4.588;2022-11-15T04:48:52;4.07;;;2.10;;
26908;SDS011;14477;51.038;4.588;2022-11-15T04:51:18;3.95;;;2.00;;
26908;SDS011;14477;51.038;4.588;2022-11-15T04:53:44;3.53;;;2.08;;
26908;SDS011;14477;51.038;4.588;2022-11-15T04:56:10;4.10;;;2.20;;
26908;SDS011;14477;51.038;4.588;2022-11-15T04:58:36;3.65;;;2.03;;
26908;SDS011;14477;51.038;4.588;2022-11-15T05:01:08;3.70;;;1.98;;
26908;SDS011;14477;51.038;4.588;2022-11-15T05:03:35;2.80;;;1.80;;
26908;SDS011;14477;51.038;4.588;2022-11-15T05:06:20;2.70;;;1.83;;
26908;SDS011;14477;51.038;4.588;2022-11-15T05:08:46;3.70;;;1.90;;
26908;SDS011;14477;51.038;4.588;2022-11-15T05:11:11;4.30;;;1.73;;
26908;SDS011;14477;51.038;4.588;2022-11-15T05:13:37;3.17;;;1.80;;
26908;SDS011;14477;51.038;4.588;2022-11-15T05:16:03;3.30;;;1.80;;
26908;SDS011;14477;51.038;4.588;2022-11-15T05:18:28;2.65;;;1.63;;
26908;SDS011;14477;51.038;4.588;2022-11-15T05:20:54;3.20;;;1.70;;
26908;SDS011;14477;51.038;4.588;2022-11-15T05:23:20;3.05;;;1.70;;
26908;SDS011;14477;51.038;4.588;2022-11-15T05:25:45;2.90;;;1.70;;
26908;SDS011;14477;51.038;4.588;2022-11-15T05:28:11;3.75;;;1.75;;
26908;SDS011;14477;51.038;4.588;2022-11-15T05:30:37;2.70;;;1.80;;
26908;SDS011;14477;51.038;4.588;2022-11-15T05:33:03;3.07;;;1.50;;
26908;SDS011;14477;51.038;4.588;2022-11-15T05:35:37;2.50;;;1.57;;
26908;SDS011;14477;51.038;4.588;2022-11-15T05:38:06;2.88;;;1.40;;
26908;SDS011;14477;51.038;4.588;2022-11-15T05:40:32;3.58;;;1.55;;
26908;SDS011;14477;51.038;4.588;2022-11-15T05:42:59;2.85;;;1.60;;
26908;SDS011;14477;51.038;4.588;2022-11-15T05:45:26;2.90;;;1.60;;
26908;SDS011;14477;51.038;4.588;2022-11-15T05:47:53;2.87;;;1.43;;
26908;SDS011;14477;51.038;4.588;2022-11-15T05:50:21;2.35;;;1.33;;
26908;SDS011;14477;51.038;4.588;2022-11-15T05:52:47;3.25;;;1.60;;
26908;SDS011;14477;51.038;4.588;2022-11-15T05:55:13;2.47;;;1.45;;
26908;SDS011;14477;51.038;4.588;2022-11-15T05:57:39;2.50;;;1.30;;
26908;SDS011;14477;51.038;4.588;2022-11-15T06:00:05;2.70;;;1.50;;
26908;SDS011;14477;51.038;4.588;2022-11-15T06:02:34;4.07;;;1.67;;
26908;SDS011;14477;51.038;4.588;2022-11-15T06:05:00;2.90;;;1.63;;
26908;SDS011;14477;51.038;4.588;2022-11-15T06:07:25;1.92;;;1.25;;
26908;SDS011;14477;51.038;4.588;2022-11-15T06:09:51;3.87;;;1.47;;
26908;SDS011;14477;51.038;4.588;2022-11-15T06:12:16;2.63;;;1.42;;
26908;SDS011;14477;51.038;4.588;2022-11-15T06:14:42;2.23;;;1.40;;
26908;SDS011;14477;51.038;4.588;2022-11-15T06:17:08;1.83;;;1.20;;
26908;SDS011;14477;51.038;4.588;2022-11-15T06:19:33;2.58;;;1.52;;
26908;SDS011;14477;51.038;4.588;2022-11-15T06:21:59;4.03;;;1.73;;
26908;SDS011;14477;51.038;4.588;2022-11-15T06:24:25;3.50;;;1.33;;
26908;SDS011;14477;51.038;4.588;2022-11-15T06:26:51;3.00;;;1.45;;
26908;SDS011;14477;51.038;4.588;2022-11-15T06:29:16;2.07;;;1.30;;
26908;SDS011;14477;51.038;4.588;2022-11-15T06:31:42;2.78;;;1.52;;
26908;SDS011;14477;51.038;4.588;2022-11-15T06:34:07;2.87;;;1.40;;
26908;SDS011;14477;51.038;4.588;2022-11-15T06:36:34;2.80;;;1.30;;
26908;SDS011;14477;51.038;4.588;2022-11-15T06:39:00;2.58;;;1.20;;
26908;SDS011;14477;51.038;4.588;2022-11-15T06:41:26;2.78;;;1.55;;
26908;SDS011;14477;51.038;4.588;2022-11-15T06:43:52;3.87;;;1.43;;
26908;SDS011;14477;51.038;4.588;2022-11-15T06:46:18;1.93;;;1.50;;
26908;SDS011;14477;51.038;4.588;2022-11-15T06:48:43;1.70;;;1.07;;
26908;SDS011;14477;51.038;4.588;2022-11-15T06:51:09;2.90;;;1.40;;
26908;SDS011;14477;51.038;4.588;2022-11-15T06:53:35;2.20;;;1.30;;
26908;SDS011;14477;51.038;4.588;2022-11-15T06:56:02;3.13;;;1.30;;
26908;SDS011;14477;51.038;4.588;2022-11-15T06:58:29;2.42;;;1.23;;
26908;SDS011;14477;51.038;4.588;2022-11-15T07:01:02;1.80;;;1.25;;
26908;SDS011;14477;51.038;4.588;2022-11-15T07:03:36;2.10;;;1.25;;
26908;SDS011;14477;51.038;4.588;2022-11-15T07:06:02;1.60;;;1.10;;
26908;SDS011;14477;51.038;4.588;2022-11-15T07:08:29;2.72;;;1.38;;
26908;SDS011;14477;51.038;4.588;2022-11-15T07:10:54;2.83;;;1.40;;
26908;SDS011;14477;51.038;4.588;2022-11-15T07:13:24;2.90;;;1.40;;
26908;SDS011;14477;51.038;4.588;2022-11-15T07:15:51;2.35;;;1.33;;
26908;SDS011;14477;51.038;4.588;2022-11-15T07:18:18;3.17;;;1.23;;
26908;SDS011;14477;51.038;4.588;2022-11-15T07:20:44;2.23;;;1.40;;
26908;SDS011;14477;51.038;4.588;2022-11-15T07:23:09;2.22;;;1.13;;
26908;SDS011;14477;51.038;4.588;2022-11-15T07:25:35;1.47;;;1.10;;
26908;SDS011;14477;51.038;4.588;2022-11-15T07:28:01;3.10;;;1.60;;
26908;SDS011;14477;51.038;4.588;2022-11-15T07:30:27;4.40;;;1.55;;
26908;SDS011;14477;51.038;4.588;2022-11-15T07:32:53;2.43;;;1.40;;
26908;SDS011;14477;51.038;4.588;2022-11-15T07:35:20;2.97;;;1.40;;
26908;SDS011;14477;51.038;4.588;2022-11-15T07:37:52;1.73;;;1.30;;
26908;SDS011;14477;51.038;4.588;2022-11-15T07:40:22;2.80;;;1.30;;
26908;SDS011;14477;51.038;4.588;2022-11-15T07:42:48;2.55;;;1.33;;
26908;SDS011;14477;51.038;4.588;2022-11-15T07:45:21;2.05;;;1.27;;
26908;SDS011;14477;51.038;4.588;2022-11-15T07:47:48;2.67;;;1.58;;
26908;SDS011;14477;51.038;4.588;2022-11-15T07:50:15;2.42;;;1.52;;
26908;SDS011;14477;51.038;4.588;2022-11-15T07:52:41;2.90;;;1.50;;
26908;SDS011;14477;51.038;4.588;2022-11-15T07:55:07;3.00;;;1.52;;
26908;SDS011;14477;51.038;4.588;2022-11-15T07:57:33;3.50;;;1.70;;
26908;SDS011;14477;51.038;4.588;2022-11-15T07:59:58;3.33;;;1.60;;
26908;SDS011;14477;51.038;4.588;2022-11-15T08:02:24;2.30;;;1.50;;
26908;SDS011;14477;51.038;4.588;2022-11-15T08:04:49;2.73;;;1.40;;
26908;SDS011;14477;51.038;4.588;2022-11-15T08:07:15;2.23;;;1.57;;
26908;SDS011;14477;51.038;4.588;2022-11-15T08:09:41;3.45;;;1.60;;
26908;SDS011;14477;51.038;4.588;2022-11-15T08:12:06;2.20;;;1.50;;
26908;SDS011;14477;51.038;4.588;2022-11-15T08:14:32;2.47;;;1.73;;
26908;SDS011;14477;51.038;4.588;2022-11-15T08:16:58;2.73;;;1.57;;
26908;SDS011;14477;51.038;4.588;2022-11-15T08:19:23;3.78;;;1.83;;
26908;SDS011;14477;51.038;4.588;2022-11-15T08:21:49;2.93;;;1.37;;
26908;SDS011;14477;51.038;4.588;2022-11-15T08:24:15;3.40;;;1.50;;
26908;SDS011;14477;51.038;4.588;2022-11-15T08:26:40;3.47;;;1.77;;
26908;SDS011;14477;51.038;4.588;2022-11-15T08:29:06;2.77;;;1.40;;
26908;SDS011;14477;51.038;4.588;2022-11-15T08:31:33;2.95;;;1.40;;
26908;SDS011;14477;51.038;4.588;2022-11-15T08:34:01;2.72;;;1.33;;
26908;SDS011;14477;51.038;4.588;2022-11-15T08:36:30;2.25;;;1.48;;
26908;SDS011;14477;51.038;4.588;2022-11-15T08:38:56;3.30;;;1.30;;
26908;SDS011;14477;51.038;4.588;2022-11-15T08:41:32;3.83;;;1.37;;
26908;SDS011;14477;51.038;4.588;2022-11-15T08:44:00;2.95;;;1.23;;
26908;SDS011;14477;51.038;4.588;2022-11-15T08:46:26;2.70;;;1.20;;
26908;SDS011;14477;51.038;4.588;2022-11-15T08:48:52;2.38;;;1.23;;
26908;SDS011;14477;51.038;4.588;2022-11-15T08:51:17;3.20;;;1.20;;
26908;SDS011;14477;51.038;4.588;2022-11-15T08:53:43;1.48;;;1.10;;
26908;SDS011;14477;51.038;4.588;2022-11-15T08:56:10;2.80;;;1.13;;
26908;SDS011;14477;51.038;4.588;2022-11-15T08:58:37;2.35;;;1.20;;
26908;SDS011;14477;51.038;4.588;2022-11-15T09:01:03;2.08;;;1.10;;
26908;SDS011;14477;51.038;4.588;2022-11-15T09:03:30;2.13;;;1.05;;
26908;SDS011;14477;51.038;4.588;2022-11-15T09:05:56;1.67;;;0.90;;
26908;SDS011;14477;51.038;4.588;2022-11-15T09:08:24;1.20;;;0.90;;
26908;SDS011;14477;51.038;4.588;2022-11-15T09:11:02;2.88;;;1.13;;
26908;SDS011;14477;51.038;4.588;2022-11-15T09:13:28;2.70;;;1.05;;
26908;SDS011;14477;51.038;4.588;2022-11-15T09:15:57;2.67;;;0.90;;
26908;SDS011;14477;51.038;4.588;2022-11-15T09:18:24;1.50;;;0.88;;
26908;SDS011;14477;51.038;4.588;2022-11-15T09:20:50;2.33;;;1.00;;
26908;SDS011;14477;51.038;4.588;2022-11-15T09:23:15;2.23;;;0.90;;
26908;SDS011;14477;51.038;4.588;2022-11-15T09:25:41;1.17;;;0.70;;
26908;SDS011;14477;51.038;4.588;2022-11-15T09:28:07;2.27;;;0.87;;
26908;SDS011;14477;51.038;4.588;2022-11-15T09:30:33;1.60;;;1.00;;
26908;SDS011;14477;51.038;4.588;2022-11-15T09:33:05;3.97;;;1.33;;
26908;SDS011;14477;51.038;4.588;2022-11-15T09:35:32;3.35;;;1.10;;
26908;SDS011;14477;51.038;4.588;2022-11-15T09:37:58;1.70;;;1.00;;
26908;SDS011;14477;51.038;4.588;2022-11-15T09:40:23;2.15;;;0.90;;
26908;SDS011;14477;51.038;4.588;2022-11-15T09:51:37;3.63;;;1.00;;
26908;SDS011;14477;51.038;4.588;2022-11-15T09:56:52;3.65;;;1.58;;
26908;SDS011;14477;51.038;4.588;2022-11-15T09:59:37;3.30;;;1.10;;
26908;SDS011;14477;51.038;4.588;2022-11-15T10:04:57;1.50;;;1.00;;
26908;SDS011;14477;51.038;4.588;2022-11-15T10:07:28;2.10;;;0.90;;
26908;SDS011;14477;51.038;4.588;2022-11-15T10:10:14;2.47;;;1.10;;
26908;SDS011;14477;51.038;4.588;2022-11-15T10:12:44;2.00;;;0.90;;
26908;SDS011;14477;51.038;4.588;2022-11-15T10:15:15;1.80;;;0.85;;
26908;SDS011;14477;51.038;4.588;2022-11-15T10:22:53;2.38;;;0.90;;
26908;SDS011;14477;51.038;4.588;2022-11-15T10:25:25;2.60;;;0.90;;
26908;SDS011;14477;51.038;4.588;2022-11-15T10:30:47;1.63;;;0.75;;
26908;SDS011;14477;51.038;4.588;2022-11-15T10:43:44;1.73;;;0.60;;
26908;SDS011;14477;51.038;4.588;2022-11-15T10:46:26;1.70;;;0.70;;
26908;SDS011;14477;51.038;4.588;2022-11-15T10:48:51;2.17;;;0.90;;
26908;SDS011;14477;51.038;4.588;2022-11-15T10:51:21;1.35;;;0.70;;
26908;SDS011;14477;51.038;4.588;2022-11-15T10:53:54;1.77;;;0.60;;
26908;SDS011;14477;51.038;4.588;2022-11-15T10:56:23;2.37;;;0.70;;
26908;SDS011;14477;51.038;4.588;2022-11-15T10:58:51;1.55;;;0.70;;
26908;SDS011;14477;51.038;4.588;2022-11-15T11:01:20;2.58;;;0.60;;
26908;SDS011;14477;51.038;4.588;2022-11-15T11:03:59;2.35;;;0.60;;
26908;SDS011;14477;51.038;4.588;2022-11-15T11:06:45;1.40;;;0.70;;
26908;SDS011;14477;51.038;4.588;2022-11-15T11:09:22;1.37;;;0.83;;
26908;SDS011;14477;51.038;4.588;2022-11-15T11:11:54;1.83;;;0.90;;
26908;SDS011;14477;51.038;4.588;2022-11-15T11:17:17;1.60;;;0.68;;
26908;SDS011;14477;51.038;4.588;2022-11-15T11:32:22;3.00;;;0.98;;
26908;SDS011;14477;51.038;4.588;2022-11-15T11:37:03;1.55;;;0.70;;
26908;SDS011;14477;51.038;4.588;2022-11-15T11:39:48;1.13;;;0.70;;
26908;SDS011;14477;51.038;4.588;2022-11-15T11:42:38;1.50;;;0.70;;
26908;SDS011;14477;51.038;4.588;2022-11-15T11:47:40;1.60;;;0.77;;
26908;SDS011;14477;51.038;4.588;2022-11-15T11:50:19;3.63;;;0.90;;
26908;SDS011;14477;51.038;4.588;2022-11-15T11:58:15;1.60;;;0.63;;
26908;SDS011;14477;51.038;4.588;2022-11-15T12:01:00;3.58;;;0.80;;
26908;SDS011;14477;51.038;4.588;2022-11-15T12:17:09;1.20;;;0.80;;
26908;SDS011;14477;51.038;4.588;2022-11-15T12:19:36;2.28;;;0.68;;
26908;SDS011;14477;51.038;4.588;2022-11-15T12:22:04;1.63;;;0.82;;
26908;SDS011;14477;51.038;4.588;2022-11-15T12:24:43;3.97;;;0.80;;
26908;SDS011;14477;51.038;4.588;2022-11-15T12:29:44;1.40;;;0.60;;
26908;SDS011;14477;51.038;4.588;2022-11-15T12:32:26;1.75;;;0.70;;
26908;SDS011;14477;51.038;4.588;2022-11-15T12:34:55;2.35;;;0.75;;
26908;SDS011;14477;51.038;4.588;2022-11-15T12:37:32;2.60;;;0.80;;
26908;SDS011;14477;51.038;4.588;2022-11-15T12:42:35;2.25;;;0.80;;
26908;SDS011;14477;51.038;4.588;2022-11-15T12:47:53;2.05;;;0.80;;
26908;SDS011;14477;51.038;4.588;2022-11-15T13:04:44;1.23;;;0.63;;
26908;SDS011;14477;51.038;4.588;2022-11-15T13:19:48;1.50;;;0.77;;
26908;SDS011;14477;51.038;4.588;2022-11-15T13:22:20;1.80;;;0.75;;
26908;SDS011;14477;51.038;4.588;2022-11-15T13:25:04;0.77;;;0.70;;
26908;SDS011;14477;51.038;4.588;2022-11-15T13:27:44;1.60;;;0.90;;
26908;SDS011;14477;51.038;4.588;2022-11-15T13:30:25;1.00;;;0.70;;
26908;SDS011;14477;51.038;4.588;2022-11-15T13:32:52;2.22;;;0.73;;
26908;SDS011;14477;51.038;4.588;2022-11-15T13:35:19;1.20;;;0.60;;
26908;SDS011;14477;51.038;4.588;2022-11-15T13:37:47;0.88;;;0.60;;
26908;SDS011;14477;51.038;4.588;2022-11-15T13:40:21;1.85;;;0.60;;
26908;SDS011;14477;51.038;4.588;2022-11-15T13:42:50;1.80;;;0.60;;
26908;SDS011;14477;51.038;4.588;2022-11-15T13:45:19;1.15;;;0.80;;
26908;SDS011;14477;51.038;4.588;2022-11-15T13:47:50;1.48;;;0.60;;
26908;SDS011;14477;51.038;4.588;2022-11-15T13:50:29;1.00;;;0.70;;
26908;SDS011;14477;51.038;4.588;2022-11-15T13:52:58;1.85;;;0.68;;
26908;SDS011;14477;51.038;4.588;2022-11-15T13:55:28;1.53;;;0.70;;
26908;SDS011;14477;51.038;4.588;2022-11-15T13:57:58;1.38;;;0.70;;
26908;SDS011;14477;51.038;4.588;2022-11-15T14:00:41;2.42;;;0.68;;
26908;SDS011;14477;51.038;4.588;2022-11-15T14:03:19;1.48;;;0.60;;
26908;SDS011;14477;51.038;4.588;2022-11-15T14:08:40;0.83;;;0.70;;
26908;SDS011;14477;51.038;4.588;2022-11-15T14:11:24;1.00;;;0.50;;
26908;SDS011;14477;51.038;4.588;2022-11-15T14:16:41;1.13;;;0.60;;
26908;SDS011;14477;51.038;4.588;2022-11-15T14:19:51;2.00;;;0.80;;
26908;SDS011;14477;51.038;4.588;2022-11-15T14:22:12;0.50;;;0.50;;
26908;SDS011;14477;51.038;4.588;2022-11-15T14:24:43;1.27;;;0.70;;
26908;SDS011;14477;51.038;4.588;2022-11-15T14:27:21;1.17;;;0.70;;
26908;SDS011;14477;51.038;4.588;2022-11-15T14:29:51;1.52;;;0.70;;
26908;SDS011;14477;51.038;4.588;2022-11-15T14:32:25;2.08;;;0.85;;
26908;SDS011;14477;51.038;4.588;2022-11-15T14:34:57;1.07;;;0.80;;
26908;SDS011;14477;51.038;4.588;2022-11-15T14:37:29;0.80;;;0.60;;
26908;SDS011;14477;51.038;4.588;2022-11-15T14:40:00;1.33;;;0.70;;
26908;SDS011;14477;51.038;4.588;2022-11-15T14:42:27;0.77;;;0.60;;
26908;SDS011;14477;51.038;4.588;2022-11-15T14:44:53;1.10;;;0.70;;
26908;SDS011;14477;51.038;4.588;2022-11-15T14:47:18;1.40;;;0.63;;
26908;SDS011;14477;51.038;4.588;2022-11-15T14:49:44;1.17;;;0.60;;
26908;SDS011;14477;51.038;4.588;2022-11-15T14:52:16;1.25;;;0.90;;
26908;SDS011;14477;51.038;4.588;2022-11-15T14:54:47;1.02;;;0.70;;
26908;SDS011;14477;51.038;4.588;2022-11-15T14:57:12;0.87;;;0.70;;
26908;SDS011;14477;51.038;4.588;2022-11-15T14:59:38;1.10;;;0.60;;
26908;SDS011;14477;51.038;4.588;2022-11-15T15:02:08;1.30;;;0.80;;
26908;SDS011;14477;51.038;4.588;2022-11-15T15:04:43;0.90;;;0.80;;
26908;SDS011;14477;51.038;4.588;2022-11-15T15:07:08;1.03;;;0.70;;
26908;SDS011;14477;51.038;4.588;2022-11-15T15:09:34;1.13;;;0.60;;
26908;SDS011;14477;51.038;4.588;2022-11-15T15:11:59;0.83;;;0.60;;
26908;SDS011;14477;51.038;4.588;2022-11-15T15:14:25;1.45;;;0.80;;
26908;SDS011;14477;51.038;4.588;2022-11-15T15:16:51;1.73;;;0.70;;
26908;SDS011;14477;51.038;4.588;2022-11-15T15:19:16;1.10;;;0.50;;
26908;SDS011;14477;51.038;4.588;2022-11-15T15:21:42;1.57;;;0.80;;
26908;SDS011;14477;51.038;4.588;2022-11-15T15:24:11;0.93;;;0.73;;
26908;SDS011;14477;51.038;4.588;2022-11-15T15:26:38;1.02;;;0.70;;
26908;SDS011;14477;51.038;4.588;2022-11-15T15:29:04;1.02;;;0.80;;
26908;SDS011;14477;51.038;4.588;2022-11-15T15:31:30;1.93;;;0.90;;
26908;SDS011;14477;51.038;4.588;2022-11-15T15:33:57;1.20;;;0.90;;
26908;SDS011;14477;51.038;4.588;2022-11-15T15:36:23;1.00;;;0.80;;
26908;SDS011;14477;51.038;4.588;2022-11-15T15:38:48;1.10;;;0.80;;
26908;SDS011;14477;51.038;4.588;2022-11-15T15:41:15;1.13;;;0.90;;
26908;SDS011;14477;51.038;4.588;2022-11-15T15:43:41;1.75;;;1.00;;
26908;SDS011;14477;51.038;4.588;2022-11-15T15:46:11;1.20;;;1.00;;
26908;SDS011;14477;51.038;4.588;2022-11-15T15:48:40;1.92;;;0.90;;
26908;SDS011;14477;51.038;4.588;2022-11-15T15:51:06;1.13;;;0.70;;
26908;SDS011;14477;51.038;4.588;2022-11-15T15:53:32;1.20;;;0.80;;
26908;SDS011;14477;51.038;4.588;2022-11-15T15:55:58;1.65;;;0.70;;
26908;SDS011;14477;51.038;4.588;2022-11-15T15:58:24;1.57;;;0.90;;
26908;SDS011;14477;51.038;4.588;2022-11-15T16:00:50;2.03;;;0.90;;
26908;SDS011;14477;51.038;4.588;2022-11-15T16:03:16;1.37;;;0.80;;
26908;SDS011;14477;51.038;4.588;2022-11-15T16:05:41;1.85;;;0.80;;
26908;SDS011;14477;51.038;4.588;2022-11-15T16:08:28;1.63;;;0.90;;
26908;SDS011;14477;51.038;4.588;2022-11-15T16:10:54;1.30;;;0.80;;
26908;SDS011;14477;51.038;4.588;2022-11-15T16:13:20;1.40;;;1.00;;
26908;SDS011;14477;51.038;4.588;2022-11-15T16:15:46;1.80;;;1.10;;
26908;SDS011;14477;51.038;4.588;2022-11-15T16:18:17;1.13;;;0.90;;
26908;SDS011;14477;51.038;4.588;2022-11-15T16:23:13;1.70;;;1.10;;
26908;SDS011;14477;51.038;4.588;2022-11-15T16:25:47;1.40;;;1.00;;
26908;SDS011;14477;51.038;4.588;2022-11-15T16:28:33;1.02;;;0.80;;
26908;SDS011;14477;51.038;4.588;2022-11-15T16:31:07;1.60;;;1.00;;
26908;SDS011;14477;51.038;4.588;2022-11-15T16:33:35;1.10;;;0.90;;
26908;SDS011;14477;51.038;4.588;2022-11-15T16:36:01;2.72;;;1.05;;
26908;SDS011;14477;51.038;4.588;2022-11-15T16:38:28;1.60;;;1.00;;
26908;SDS011;14477;51.038;4.588;2022-11-15T16:40:54;1.65;;;0.88;;
26908;SDS011;14477;51.038;4.588;2022-11-15T16:43:19;1.20;;;0.93;;
26908;SDS011;14477;51.038;4.588;2022-11-15T16:45:45;1.20;;;1.00;;
26908;SDS011;14477;51.038;4.588;2022-11-15T16:48:17;2.00;;;0.90;;
26908;SDS011;14477;51.038;4.588;2022-11-15T16:50:49;1.40;;;1.00;;
26908;SDS011;14477;51.038;4.588;2022-11-15T16:53:18;1.33;;;0.90;;
26908;SDS011;14477;51.038;4.588;2022-11-15T16:55:44;1.77;;;1.00;;
26908;SDS011;14477;51.038;4.588;2022-11-15T16:58:09;3.40;;;1.55;;
26908;SDS011;14477;51.038;4.588;2022-11-15T17:00:35;2.20;;;1.40;;
26908;SDS011;14477;51.038;4.588;2022-11-15T17:03:00;1.55;;;1.10;;
26908;SDS011;14477;51.038;4.588;2022-11-15T17:05:27;1.73;;;1.20;;
26908;SDS011;14477;51.038;4.588;2022-11-15T17:07:53;1.63;;;1.10;;
26908;SDS011;14477;51.038;4.588;2022-11-15T17:10:20;1.90;;;1.17;;
26908;SDS011;14477;51.038;4.588;2022-11-15T17:12:47;1.65;;;1.17;;
26908;SDS011;14477;51.038;4.588;2022-11-15T17:15:13;1.70;;;1.10;;
26908;SDS011;14477;51.038;4.588;2022-11-15T17:17:40;1.50;;;1.07;;
26908;SDS011;14477;51.038;4.588;2022-11-15T17:20:08;2.25;;;1.02;;
26908;SDS011;14477;51.038;4.588;2022-11-15T17:22:39;1.90;;;1.10;;